EDXW

Sylt Airport

Airport
ICAO code
EDXW
IATA Code
GWT
Summary
ICAO Region
EUR
ICAO Territory
Location

Westerland, Sylt

Serving
Sylt
Elevation
51 ft
Coordinates
54° 54' 40" N , 8° 20' 25" E
KCC
Metar
Observation
EDXW 031850Z AUTO 34023KT 9999 // FEW017/// SCT020/// 06/03 Q1021
Station
Westerland / Sylt
Date/Time
2023-02-03 18:50:00
Wind direction
340°
Wind speed
23 kts
Lowest cloud amount
few clouds
Temperature
6°C
Dew point
3°C
Humidity
81%
QNH
1021 hPa
Weather condition
n/a

Sylt Airport (IATA: GWT, ICAO: EDXW) is the airport on the German island of Sylt.

Climatology

Temperate oceanic climate (Köppen climate classification Cfb)

Runways

Designator Length Width Surface Rops
6/24 1696 45 ASP Yes/Yes
14/32 2120 45 CON Yes/Yes

Airport map

Aerial View

Airport accidents

SKYbrary Partners:

Safety knowledge contributed by: